Time;durP1;ratioP1;P1;durP2;ratioP2;P2;SDS_P1;SDS_P2;PMS_P1;PMS_P2;Temp;Humidity;BMP_temperature;BMP_pressure;BME280_temperature;BME280_humidity;BME280_pressure;Samples;Min_cycle;Max_cycle;Signal;HPM_P1;HPM_P2
2023/01/09 00:00:31;;;;;;;3.40;2.05;;;7.90;99.90;;;;;;4977459;28;20112;-50
2023/01/09 00:02:56;;;;;;;6.47;2.20;;;7.90;99.90;;;;;;4975603;28;20043;-50
2023/01/09 00:05:22;;;;;;;6.13;2.05;;;7.90;99.90;;;;;;4981004;28;20042;-48
2023/01/09 00:07:48;;;;;;;6.28;1.88;;;7.90;99.90;;;;;;4982595;28;20564;-48
2023/01/09 00:10:14;;;;;;;4.55;2.10;;;7.90;99.90;;;;;;4978920;28;20129;-48
2023/01/09 00:12:40;;;;;;;5.93;2.20;;;7.90;99.90;;;;;;4983318;28;20506;-47
2023/01/09 00:15:06;;;;;;;5.00;2.60;;;7.90;99.90;;;;;;4982118;28;20038;-48
2023/01/09 00:17:31;;;;;;;4.28;2.20;;;7.90;99.90;;;;;;4983106;28;20077;-48
2023/01/09 00:19:57;;;;;;;4.82;2.38;;;7.90;99.90;;;;;;4978706;28;20263;-50
2023/01/09 00:22:23;;;;;;;4.93;2.30;;;8.00;99.90;;;;;;4981932;28;20056;-49
2023/01/09 00:24:49;;;;;;;4.63;2.58;;;7.90;99.90;;;;;;4983484;28;20034;-48
2023/01/09 00:27:15;;;;;;;6.15;3.13;;;7.90;99.90;;;;;;4982379;28;20522;-49
2023/01/09 00:29:41;;;;;;;4.35;2.78;;;7.90;99.90;;;;;;4982766;28;20066;-48
2023/01/09 00:32:09;;;;;;;4.07;2.58;;;7.90;99.90;;;;;;4981820;28;20070;-49
2023/01/09 00:34:36;;;;;;;;;;;7.90;99.90;;;;;;4980701;28;20045;-53
2023/01/09 00:37:02;;;;;;;5.72;2.35;;;7.90;99.90;;;;;;4975166;28;19930;-51
2023/01/09 00:39:28;;;;;;;4.82;2.70;;;7.80;99.90;;;;;;4976392;28;20125;-48
2023/01/09 00:41:55;;;;;;;3.78;2.70;;;7.80;99.90;;;;;;4978147;28;20129;-50
2023/01/09 00:44:30;;;;;;;5.90;3.10;;;7.80;99.90;;;;;;4977322;28;20142;-51
2023/01/09 00:47:01;;;;;;;7.95;3.03;;;7.70;99.90;;;;;;4979547;28;20081;-50
2023/01/09 00:49:34;;;;;;;5.45;2.95;;;7.70;99.90;;;;;;4974607;28;20074;-49
2023/01/09 00:52:00;;;;;;;7.22;3.30;;;7.70;99.90;;;;;;4980810;28;20085;-50
2023/01/09 00:54:28;;;;;;;5.63;3.25;;;7.70;99.90;;;;;;4980575;28;20116;-49
2023/01/09 00:56:54;;;;;;;;;;;7.60;99.90;;;;;;4980820;28;20081;-49
2023/01/09 00:59:21;;;;;;;4.97;3.15;;;7.60;99.90;;;;;;4980953;28;19930;-50
2023/01/09 01:01:46;;;;;;;4.32;3.13;;;7.60;99.90;;;;;;4978772;28;20084;-49
2023/01/09 01:09:41;;;;;;;5.53;2.90;;;7.50;99.90;;;;;;4985731;28;20050;-50
2023/01/09 01:12:06;;;;;;;4.32;2.58;;;7.50;99.90;;;;;;4986004;28;20089;-48
2023/01/09 01:14:34;;;;;;;4.95;2.58;;;7.40;99.90;;;;;;4989274;28;20120;-49
2023/01/09 01:16:59;;;;;;;3.28;2.58;;;7.40;99.90;;;;;;4985178;28;20396;-50
2023/01/09 01:19:25;;;;;;;4.82;2.60;;;7.40;99.90;;;;;;4984112;28;20050;-48
2023/01/09 01:21:51;;;;;;;5.95;2.42;;;7.40;99.90;;;;;;4986539;28;20038;-49
2023/01/09 01:24:19;;;;;;;4.53;2.22;;;7.40;99.90;;;;;;4982065;28;20038;-50
2023/01/09 01:26:46;;;;;;;7.13;2.53;;;7.30;99.90;;;;;;4985181;28;20049;-50
2023/01/09 01:29:11;;;;;;;2.83;1.95;;;7.20;99.90;;;;;;4984504;28;20551;-50
2023/01/09 01:31:37;;;;;;;3.08;2.00;;;7.30;99.90;;;;;;4984963;28;20034;-48
2023/01/09 01:34:03;;;;;;;2.42;1.52;;;7.30;99.90;;;;;;4984519;28;20042;-52
2023/01/09 01:36:28;;;;;;;3.45;1.65;;;7.20;99.90;;;;;;4986004;28;20043;-51
2023/01/09 01:38:54;;;;;;;5.43;1.90;;;7.20;99.90;;;;;;4983024;28;20046;-48
2023/01/09 01:41:28;;;;;;;3.22;1.63;;;7.10;99.90;;;;;;4982208;28;20050;-49
2023/01/09 01:44:02;;;;;;;4.75;1.55;;;7.10;99.90;;;;;;4979559;28;20046;-48
2023/01/09 01:46:29;;;;;;;4.40;1.35;;;7.10;99.90;;;;;;4983304;28;20038;-49
2023/01/09 01:49:12;;;;;;;2.08;1.23;;;7.10;99.90;;;;;;4983342;28;20077;-48
2023/01/09 01:51:43;;;;;;;2.63;1.23;;;7.10;99.90;;;;;;4983808;28;20571;-49
2023/01/09 01:54:15;;;;;;;2.72;1.30;;;7.00;99.90;;;;;;4978721;28;20488;-50
2023/01/09 01:56:47;;;;;;;4.05;1.30;;;6.90;99.90;;;;;;4977674;28;20509;-49
2023/01/09 01:59:23;;;;;;;4.32;1.00;;;;;;;;;;4977684;28;20050;-49
2023/01/09 02:01:52;;;;;;;2.92;1.45;;;6.90;99.90;;;;;;4977972;28;22860;-49
2023/01/09 02:04:18;;;;;;;1.60;0.88;;;6.80;99.90;;;;;;4985594;28;20049;-48
2023/01/09 02:06:47;;;;;;;2.28;0.90;;;6.70;99.90;;;;;;4984248;28;20441;-48
2023/01/09 02:09:14;;;;;;;2.70;1.20;;;6.70;99.90;;;;;;4978966;28;20042;-49
2023/01/09 02:11:55;;;;;;;1.58;0.90;;;6.60;99.90;;;;;;4981111;28;20477;-48
2023/01/09 02:14:24;;;;;;;2.05;0.80;;;6.60;99.90;;;;;;4985453;28;20511;-49
2023/01/09 02:17:17;;;;;;;1.42;0.70;;;6.50;99.90;;;;;;4992461;28;20124;-48
2023/01/09 02:20:10;;;;;;;2.47;0.95;;;6.50;99.90;;;;;;4985341;28;20061;-51
2023/01/09 02:22:56;;;;;;;1.50;0.77;;;6.40;99.90;;;;;;4985404;28;20060;-48
2023/01/09 02:25:37;;;;;;;2.30;1.13;;;6.40;99.90;;;;;;4983686;28;20394;-50
2023/01/09 02:28:18;;;;;;;1.85;1.08;;;6.40;99.90;;;;;;4983250;28;20057;-49
2023/01/09 02:30:47;;;;;;;2.05;1.00;;;6.40;99.90;;;;;;4983847;28;20047;-50
2023/01/09 02:33:22;;;;;;;1.70;1.25;;;6.30;99.90;;;;;;4983586;28;20180;-52
2023/01/09 02:36:21;;;;;;;2.47;1.20;;;6.30;99.90;;;;;;4984587;28;20042;-50
2023/01/09 02:38:59;;;;;;;1.77;1.05;;;6.30;99.90;;;;;;4984624;28;20097;-48
2023/01/09 02:41:44;;;;;;;6.63;1.50;;;6.20;99.90;;;;;;4983354;28;20041;-48
2023/01/09 02:44:22;;;;;;;2.58;1.25;;;6.20;99.90;;;;;;4982993;28;20046;-49
2023/01/09 02:47:07;;;;;;;2.97;1.30;;;6.10;99.90;;;;;;4980118;28;20101;-49
2023/01/09 02:49:36;;;;;;;4.53;1.92;;;6.10;99.90;;;;;;4976203;28;20046;-48
2023/01/09 02:52:14;;;;;;;2.30;1.50;;;6.10;99.90;;;;;;4977845;28;20042;-50
2023/01/09 02:54:48;;;;;;;3.10;1.45;;;6.00;99.90;;;;;;4981338;28;20058;-49
2023/01/09 02:57:28;;;;;;;3.72;1.50;;;5.90;99.90;;;;;;4978052;28;20136;-49
2023/01/09 03:00:00;;;;;;;3.00;1.60;;;5.90;99.90;;;;;;4977415;28;20096;-50
2023/01/09 03:02:37;;;;;;;3.28;1.75;;;5.90;99.90;;;;;;4977162;28;20054;-52
2023/01/09 03:05:13;;;;;;;3.80;2.10;;;5.80;99.90;;;;;;4978220;28;21486;-49
2023/01/09 03:07:48;;;;;;;5.35;1.85;;;5.80;99.90;;;;;;4977435;28;20042;-51
2023/01/09 03:10:25;;;;;;;3.78;2.08;;;5.80;99.90;;;;;;4986583;28;20105;-51
2023/01/09 03:12:53;;;;;;;4.43;2.40;;;5.70;99.90;;;;;;4979541;28;20116;-49
2023/01/09 03:15:23;;;;;;;5.88;2.35;;;5.70;99.90;;;;;;4979638;28;20358;-52
2023/01/09 03:17:50;;;;;;;6.75;2.72;;;5.70;99.90;;;;;;4976187;28;20093;-50
2023/01/09 03:20:21;;;;;;;3.92;2.17;;;5.70;99.90;;;;;;4977712;28;20568;-52
2023/01/09 03:22:53;;;;;;;5.05;2.40;;;5.60;99.90;;;;;;4979051;28;20042;-51
2023/01/09 03:25:19;;;;;;;3.30;2.50;;;5.60;99.90;;;;;;4989288;28;20053;-49
2023/01/09 03:27:44;;;;;;;5.35;2.85;;;5.50;99.90;;;;;;4982555;28;20042;-49
2023/01/09 03:30:10;;;;;;;4.35;2.65;;;5.50;99.90;;;;;;4983712;28;20078;-48
2023/01/09 03:32:36;;;;;;;4.00;2.80;;;5.40;99.90;;;;;;4982506;28;20073;-49
2023/01/09 03:35:02;;;;;;;4.95;2.90;;;5.40;99.90;;;;;;4982395;28;20457;-48
2023/01/09 03:37:27;;;;;;;6.85;3.42;;;5.50;99.90;;;;;;4982103;28;20125;-49
2023/01/09 03:39:53;;;;;;;6.25;3.38;;;5.50;99.90;;;;;;4985991;28;20555;-48
2023/01/09 03:42:18;;;;;;;5.85;3.50;;;5.30;99.90;;;;;;4982543;28;20049;-49
2023/01/09 03:44:44;;;;;;;5.65;3.50;;;5.30;99.90;;;;;;4984986;28;20084;-52
2023/01/09 03:47:10;;;;;;;5.97;3.80;;;5.30;99.90;;;;;;4985862;28;20038;-51
2023/01/09 03:49:35;;;;;;;9.13;3.78;;;5.30;99.90;;;;;;4986346;28;20042;-51
2023/01/09 03:52:01;;;;;;;7.40;3.72;;;5.20;99.90;;;;;;4983739;28;20492;-50
2023/01/09 03:54:26;;;;;;;9.73;4.40;;;5.20;99.90;;;;;;4983275;28;20044;-52
2023/01/09 03:56:52;;;;;;;9.88;4.35;;;5.20;99.90;;;;;;4983789;28;20047;-49
2023/01/09 03:59:18;;;;;;;7.70;4.63;;;5.30;99.90;;;;;;4984829;28;20035;-51
2023/01/09 04:01:43;;;;;;;7.80;5.10;;;5.30;99.90;;;;;;4981662;28;20041;-50
2023/01/09 04:04:09;;;;;;;11.55;5.25;;;5.30;99.90;;;;;;4980916;28;20492;-49
2023/01/09 04:06:34;;;;;;;7.55;6.50;;;5.30;99.90;;;;;;4976238;28;20046;-50
2023/01/09 04:09:00;;;;;;;13.02;7.28;;;5.30;99.90;;;;;;4976121;28;20058;-48
2023/01/09 04:11:26;;;;;;;13.00;8.38;;;5.30;99.90;;;;;;4977147;28;20046;-48
2023/01/09 04:13:51;;;;;;;11.02;6.97;;;5.30;99.90;;;;;;4977548;28;20561;-51
2023/01/09 04:16:17;;;;;;;14.23;9.02;;;5.30;99.90;;;;;;4980214;28;20519;-48
2023/01/09 04:18:42;;;;;;;14.85;9.20;;;5.30;99.90;;;;;;4983417;28;20470;-52
2023/01/09 04:21:08;;;;;;;12.07;9.70;;;5.30;99.90;;;;;;4981925;28;20049;-48
2023/01/09 04:23:34;;;;;;;14.32;9.93;;;5.30;99.90;;;;;;4982817;28;20031;-49
2023/01/09 04:25:59;;;;;;;17.80;10.52;;;5.30;99.90;;;;;;4981723;28;20064;-52
2023/01/09 04:28:25;;;;;;;13.52;9.98;;;5.20;99.90;;;;;;4986184;28;20038;-48
2023/01/09 04:30:51;;;;;;;14.63;10.35;;;5.20;99.90;;;;;;4984520;28;20046;-49
2023/01/09 04:33:16;;;;;;;12.15;10.48;;;5.20;99.90;;;;;;4985922;28;20039;-51
2023/01/09 04:35:42;;;;;;;15.00;10.05;;;5.20;99.90;;;;;;4979701;28;20126;-51
2023/01/09 04:38:07;;;;;;;12.77;9.45;;;5.10;99.90;;;;;;4983106;28;20031;-50
2023/01/09 04:40:33;;;;;;;11.82;8.75;;;5.10;99.90;;;;;;4987371;28;20444;-49
2023/01/09 04:42:58;;;;;;;9.68;7.68;;;5.10;99.90;;;;;;4983906;28;20058;-49
2023/01/09 04:45:24;;;;;;;11.60;7.43;;;5.10;99.90;;;;;;4987317;28;20035;-48
2023/01/09 04:47:50;;;;;;;12.55;7.47;;;5.10;99.90;;;;;;4980535;28;22072;-51
2023/01/09 04:50:15;;;;;;;10.35;7.15;;;5.00;99.90;;;;;;4980640;28;20396;-52
2023/01/09 04:52:41;;;;;;;10.98;6.90;;;5.00;99.90;;;;;;4995463;28;20038;-54
2023/01/09 04:55:07;;;;;;;10.20;6.88;;;;;;;;;;4987359;28;20034;-50
2023/01/09 04:57:34;;;;;;;12.00;6.78;;;4.90;99.90;;;;;;4982258;28;20046;-51
2023/01/09 05:00:00;;;;;;;10.25;7.03;;;4.90;99.90;;;;;;4985626;28;20535;-50
2023/01/09 05:02:26;;;;;;;13.43;7.30;;;4.90;99.90;;;;;;4981471;28;20108;-51
2023/01/09 05:04:52;;;;;;;9.93;7.15;;;4.90;99.90;;;;;;4982886;28;20457;-51
2023/01/09 05:07:17;;;;;;;11.40;7.53;;;4.80;99.90;;;;;;4983627;28;20031;-53
2023/01/09 05:09:43;;;;;;;11.93;7.47;;;4.80;99.90;;;;;;4985018;28;20508;-51
2023/01/09 05:12:09;;;;;;;12.30;7.93;;;4.80;99.90;;;;;;4980799;28;20171;-51
2023/01/09 05:14:34;;;;;;;15.85;7.60;;;4.80;99.90;;;;;;4983635;28;20385;-50
2023/01/09 05:17:00;;;;;;;11.40;7.88;;;4.80;99.90;;;;;;4984389;28;20081;-52
2023/01/09 05:19:26;;;;;;;13.68;7.97;;;4.80;99.90;;;;;;4985725;28;20038;-49
2023/01/09 05:21:51;;;;;;;10.90;7.47;;;4.80;99.90;;;;;;4987070;28;20121;-49
2023/01/09 05:24:17;;;;;;;16.33;8.73;;;4.90;99.90;;;;;;4983311;28;20054;-50
2023/01/09 05:26:42;;;;;;;11.80;8.18;;;4.90;99.90;;;;;;4984973;28;20050;-50
2023/01/09 05:29:08;;;;;;;12.30;7.72;;;4.90;99.90;;;;;;4981995;28;20061;-52
2023/01/09 05:31:34;;;;;;;12.98;8.20;;;4.90;99.90;;;;;;4979499;28;20089;-50
2023/01/09 05:34:00;;;;;;;11.65;8.55;;;4.90;99.90;;;;;;4980573;28;20125;-52
2023/01/09 05:36:25;;;;;;;10.80;8.00;;;4.90;99.90;;;;;;4980528;28;20054;-50
2023/01/09 05:38:51;;;;;;;14.50;7.82;;;4.90;99.90;;;;;;4979417;28;20041;-50
2023/01/09 05:41:17;;;;;;;13.02;8.55;;;4.80;99.90;;;;;;4981330;28;20416;-48
2023/01/09 05:43:42;;;;;;;11.60;8.23;;;4.80;99.90;;;;;;4982024;28;20273;-51
2023/01/09 05:46:08;;;;;;;10.70;8.20;;;4.80;99.90;;;;;;4981572;28;20045;-52
2023/01/09 05:48:33;;;;;;;15.15;8.68;;;4.80;99.90;;;;;;4981265;28;20039;-50
2023/01/09 05:50:59;;;;;;;16.65;8.30;;;4.80;99.90;;;;;;4981289;28;20050;-52
2023/01/09 05:53:25;;;;;;;11.00;7.72;;;4.80;99.90;;;;;;4981992;28;20658;-48
2023/01/09 05:55:50;;;;;;;13.85;7.30;;;4.80;99.90;;;;;;4980002;28;20037;-48
2023/01/09 05:58:16;;;;;;;13.50;7.15;;;4.80;99.90;;;;;;4984356;28;20478;-50
2023/01/09 06:00:41;;;;;;;9.35;6.30;;;4.80;99.90;;;;;;4981281;28;20045;-48
2023/01/09 06:03:07;;;;;;;10.32;6.45;;;4.80;99.90;;;;;;4984156;28;20046;-49
2023/01/09 06:05:33;;;;;;;9.65;6.45;;;4.80;99.90;;;;;;4981629;28;20085;-50
2023/01/09 06:07:58;;;;;;;11.13;5.55;;;4.80;99.90;;;;;;4979805;28;20034;-50
2023/01/09 06:10:24;;;;;;;9.07;5.35;;;4.80;99.90;;;;;;4978986;28;20057;-51
2023/01/09 06:12:50;;;;;;;8.65;4.97;;;4.80;99.90;;;;;;4982038;28;20073;-49
2023/01/09 06:15:16;;;;;;;10.20;5.60;;;4.80;99.90;;;;;;4968563;28;20061;-52
2023/01/09 06:17:42;;;;;;;10.52;5.22;;;4.70;99.90;;;;;;4979507;28;20058;-49
2023/01/09 06:20:09;;;;;;;8.80;4.78;;;4.70;99.90;;;;;;4978972;28;20401;-51
2023/01/09 06:22:35;;;;;;;12.07;4.70;;;4.70;99.90;;;;;;4977068;28;20113;-50
2023/01/09 06:25:00;;;;;;;10.25;4.72;;;4.70;99.90;;;;;;4977832;28;20129;-52
2023/01/09 06:27:26;;;;;;;9.25;4.53;;;4.60;99.90;;;;;;4976652;28;20088;-49
2023/01/09 06:29:52;;;;;;;10.07;5.13;;;4.70;99.90;;;;;;4978241;28;20041;-49
2023/01/09 06:32:17;;;;;;;9.48;4.50;;;4.70;99.90;;;;;;4981206;28;20047;-49
2023/01/09 06:34:43;;;;;;;11.10;4.85;;;4.70;99.90;;;;;;4979849;28;20108;-51
2023/01/09 06:37:09;;;;;;;10.57;4.50;;;4.70;99.90;;;;;;4983265;28;20409;-49
2023/01/09 06:39:35;;;;;;;8.20;4.40;;;4.60;99.90;;;;;;4980905;28;20533;-50
2023/01/09 06:42:01;;;;;;;9.07;4.32;;;4.60;99.90;;;;;;4978542;28;20039;-50
2023/01/09 06:44:26;;;;;;;11.73;4.22;;;4.50;99.90;;;;;;4981215;28;20070;-50
2023/01/09 06:46:52;;;;;;;10.68;4.82;;;4.50;99.90;;;;;;4977971;28;20055;-51
2023/01/09 06:49:22;;;;;;;8.68;5.03;;;4.50;99.90;;;;;;4991177;28;20394;-51
2023/01/09 06:51:49;;;;;;;14.80;5.63;;;4.50;99.90;;;;;;4978224;28;20458;-50
2023/01/09 06:54:15;;;;;;;10.50;5.70;;;4.60;99.90;;;;;;4976575;28;20141;-51
2023/01/09 06:56:40;;;;;;;9.55;5.30;;;4.50;99.90;;;;;;4977611;28;20839;-51
2023/01/09 06:59:06;;;;;;;10.85;5.07;;;4.60;99.90;;;;;;4976683;28;20132;-48
2023/01/09 07:01:31;;;;;;;10.40;6.63;;;4.60;99.90;;;;;;4979095;28;20042;-51
2023/01/09 07:03:57;;;;;;;10.25;5.60;;;4.70;99.90;;;;;;4978496;28;20050;-48
2023/01/09 07:06:23;;;;;;;13.38;5.43;;;4.70;99.90;;;;;;4979847;28;20042;-49
2023/01/09 07:08:48;;;;;;;6.88;4.93;;;4.70;99.90;;;;;;4976767;28;20519;-49
2023/01/09 07:11:14;;;;;;;11.45;5.97;;;4.80;99.90;;;;;;4978025;28;20038;-49
2023/01/09 07:13:39;;;;;;;10.38;5.63;;;4.80;99.90;;;;;;4981697;28;20505;-49
2023/01/09 07:16:06;;;;;;;9.32;5.90;;;4.90;99.90;;;;;;4984709;28;20393;-50
2023/01/09 07:18:31;;;;;;;11.50;5.40;;;4.90;99.90;;;;;;4980522;28;20072;-49
2023/01/09 07:20:57;;;;;;;8.73;5.00;;;5.00;99.90;;;;;;4981317;28;20078;-49
2023/01/09 07:23:22;;;;;;;7.57;4.97;;;5.00;99.90;;;;;;4978543;28;20093;-50
2023/01/09 07:25:51;;;;;;;10.35;5.28;;;5.10;99.90;;;;;;4975841;28;20050;-50
2023/01/09 07:28:16;;;;;;;11.43;5.20;;;5.10;99.90;;;;;;4977772;28;20081;-53
2023/01/09 07:30:42;;;;;;;8.50;5.22;;;5.20;99.90;;;;;;4979198;28;20124;-50
2023/01/09 07:33:08;;;;;;;8.23;4.80;;;5.20;99.90;;;;;;4977293;28;20474;-51
2023/01/09 07:35:33;;;;;;;9.93;5.40;;;5.20;99.90;;;;;;4980409;28;20130;-49
2023/01/09 07:37:59;;;;;;;9.27;5.25;;;5.20;99.90;;;;;;4983175;28;20470;-48
2023/01/09 07:40:25;;;;;;;13.82;6.15;;;5.20;99.90;;;;;;4983515;28;20054;-49
2023/01/09 07:42:54;;;;;;;11.50;4.85;;;5.30;99.90;;;;;;4981839;28;20082;-52
2023/01/09 07:45:20;;;;;;;8.07;4.28;;;5.30;99.90;;;;;;4982679;28;20042;-50
2023/01/09 07:47:46;;;;;;;11.80;3.92;;;5.30;99.90;;;;;;4984530;28;20053;-50
2023/01/09 07:50:11;;;;;;;10.32;4.40;;;5.40;99.90;;;;;;4984267;28;20149;-49
2023/01/09 07:52:38;;;;;;;11.15;4.15;;;;;;;;;;4984003;28;20034;-49
2023/01/09 07:55:04;;;;;;;10.32;4.60;;;5.50;99.90;;;;;;4983329;28;20046;-50
2023/01/09 07:57:29;;;;;;;9.10;4.97;;;5.50;99.90;;;;;;4991492;28;20076;-46
2023/01/09 07:59:55;;;;;;;11.07;5.45;;;5.60;99.90;;;;;;4987630;28;20078;-52
2023/01/09 08:02:21;;;;;;;6.47;3.67;;;5.60;99.90;;;;;;4982310;28;20077;-51
2023/01/09 08:04:47;;;;;;;10.00;4.53;;;;;;;;;;4971546;28;20046;-49
2023/01/09 08:07:13;;;;;;;10.73;4.88;;;5.70;99.90;;;;;;4982697;28;20042;-48
2023/01/09 08:09:38;;;;;;;10.32;4.65;;;5.70;99.90;;;;;;4983527;28;20114;-49
2023/01/09 08:12:04;;;;;;;8.82;3.80;;;5.70;99.90;;;;;;4983138;28;20149;-49
2023/01/09 08:14:30;;;;;;;10.32;3.55;;;5.70;99.90;;;;;;4984551;28;20046;-49
2023/01/09 08:16:56;;;;;;;9.02;4.47;;;5.80;99.90;;;;;;4982690;28;20126;-49
2023/01/09 08:19:21;;;;;;;9.10;4.18;;;5.80;99.90;;;;;;4980480;28;20073;-49
2023/01/09 08:21:47;;;;;;;10.13;4.13;;;5.80;99.90;;;;;;4981602;28;20409;-48
2023/01/09 08:24:12;;;;;;;8.98;3.85;;;5.80;99.90;;;;;;4979420;28;20046;-50
2023/01/09 08:26:38;;;;;;;11.65;3.83;;;5.90;99.90;;;;;;4980477;28;20108;-49
2023/01/09 08:29:05;;;;;;;7.82;3.78;;;5.90;99.90;;;;;;4981702;28;20035;-48
2023/01/09 08:31:31;;;;;;;12.93;4.03;;;5.90;99.90;;;;;;4981315;28;20055;-48
2023/01/09 08:33:56;;;;;;;9.95;4.43;;;6.00;99.90;;;;;;4985354;28;20093;-48
2023/01/09 08:36:22;;;;;;;9.27;3.25;;;6.00;99.90;;;;;;4989342;28;20097;-48
2023/01/09 08:38:47;;;;;;;10.27;3.88;;;6.00;99.90;;;;;;4985471;28;20046;-48
2023/01/09 08:49:26;;;;;;;7.25;3.10;;;6.10;99.90;;;;;;4979893;28;20054;-48
2023/01/09 08:51:52;;;;;;;11.80;3.63;;;6.10;99.90;;;;;;4983993;28;20041;-48
2023/01/09 08:54:17;;;;;;;8.10;3.78;;;6.10;99.90;;;;;;4984129;28;20038;-50
2023/01/09 08:56:43;;;;;;;7.55;3.70;;;6.10;99.90;;;;;;4977175;28;20077;-49
2023/01/09 08:59:10;;;;;;;7.68;3.13;;;6.20;99.90;;;;;;4983828;28;20035;-49
2023/01/09 09:01:35;;;;;;;9.55;3.20;;;6.20;99.90;;;;;;4975196;28;20515;-48
2023/01/09 09:04:01;;;;;;;7.32;3.10;;;6.20;99.90;;;;;;4980267;28;20058;-48
2023/01/09 09:06:27;;;;;;;8.20;3.63;;;6.30;99.90;;;;;;4978493;28;20168;-48
2023/01/09 09:08:53;;;;;;;7.80;3.60;;;6.30;99.90;;;;;;4983848;28;20085;-48
2023/01/09 09:11:18;;;;;;;6.47;3.55;;;6.30;99.90;;;;;;4991330;28;20422;-48
2023/01/09 09:13:44;;;;;;;9.68;3.20;;;;;;;;;;4984547;28;20055;-48
2023/01/09 09:16:10;;;;;;;8.55;3.75;;;6.40;99.90;;;;;;4989352;28;20077;-49
2023/01/09 09:18:35;;;;;;;10.45;3.85;;;6.50;99.90;;;;;;4986691;28;20047;-52
2023/01/09 09:21:01;;;;;;;8.88;3.55;;;6.50;99.90;;;;;;4988944;28;20499;-49
2023/01/09 09:23:26;;;;;;;10.27;3.80;;;6.50;99.90;;;;;;4971111;28;20042;-49
2023/01/09 09:25:52;;;;;;;7.47;3.05;;;6.60;99.90;;;;;;4987211;28;20116;-48
2023/01/09 09:28:18;;;;;;;7.63;3.03;;;6.60;99.90;;;;;;4980867;28;20039;-48
2023/01/09 09:30:44;;;;;;;5.30;2.83;;;;;;;;;;4985074;28;20038;-49
2023/01/09 09:33:09;;;;;;;7.90;3.30;;;6.60;99.90;;;;;;4980197;28;20059;-49
2023/01/09 09:35:35;;;;;;;7.22;2.95;;;6.70;99.90;;;;;;4983170;28;20511;-48
2023/01/09 09:38:02;;;;;;;5.25;2.92;;;6.70;99.90;;;;;;4988116;28;20046;-52
2023/01/09 09:40:37;;;;;;;6.50;2.80;;;6.70;99.90;;;;;;4982812;28;20149;-48
2023/01/09 09:46:15;;;;;;;10.38;3.30;;;6.70;99.90;;;;;;4986257;28;20392;-53
2023/01/09 09:49:01;;;;;;;6.07;2.53;;;6.70;99.90;;;;;;4985066;28;20046;-50
2023/01/09 09:51:45;;;;;;;6.90;2.80;;;;;;;;;;4984213;28;20047;-48
2023/01/09 09:54:11;;;;;;;5.20;2.70;;;6.80;99.90;;;;;;4985978;28;20382;-47
2023/01/09 09:56:46;;;;;;;9.77;3.17;;;6.70;99.90;;;;;;4985678;28;20050;-49
2023/01/09 09:59:18;;;;;;;8.55;3.00;;;6.70;99.90;;;;;;4979679;28;20046;-48
2023/01/09 10:02:00;;;;;;;8.45;2.70;;;6.70;99.90;;;;;;4985871;28;20054;-51
2023/01/09 10:04:29;;;;;;;9.98;3.08;;;6.70;99.90;;;;;;4992712;28;20172;-48
2023/01/09 10:07:08;;;;;;;8.40;2.72;;;6.70;99.90;;;;;;4995158;28;20097;-48
2023/01/09 10:09:59;;;;;;;6.93;3.03;;;6.70;99.90;;;;;;4990219;28;20055;-48
2023/01/09 10:12:45;;;;;;;8.05;3.33;;;6.70;99.90;;;;;;4986583;28;20058;-51
2023/01/09 10:15:24;;;;;;;8.07;3.63;;;6.70;99.90;;;;;;4975556;28;20078;-52
2023/01/09 10:18:01;;;;;;;11.07;3.58;;;6.70;99.90;;;;;;4975355;28;20098;-48
2023/01/09 10:20:37;;;;;;;11.25;4.30;;;6.70;99.90;;;;;;4975236;28;20437;-50
2023/01/09 10:23:14;;;;;;;4.07;2.70;;;6.70;99.90;;;;;;4974405;28;20043;-50
2023/01/09 10:25:55;;;;;;;8.18;3.35;;;6.80;99.90;;;;;;4985889;28;20077;-50
2023/01/09 10:28:30;;;;;;;5.07;3.05;;;6.80;99.90;;;;;;4991326;28;20129;-49
2023/01/09 10:31:04;;;;;;;6.53;3.05;;;;;;;;;;4990748;28;20050;-52
2023/01/09 10:33:38;;;;;;;6.72;3.22;;;6.80;99.90;;;;;;4991504;28;20436;-49
2023/01/09 10:36:31;;;;;;;6.35;3.10;;;6.80;99.90;;;;;;4993343;28;20050;-49
2023/01/09 10:39:02;;;;;;;6.13;3.00;;;6.80;99.90;;;;;;4986632;28;20093;-48
2023/01/09 10:41:36;;;;;;;6.65;3.20;;;6.80;99.90;;;;;;4988553;28;20054;-48
2023/01/09 10:44:21;;;;;;;4.47;3.22;;;6.70;99.90;;;;;;4981890;28;20050;-49
2023/01/09 10:46:55;;;;;;;8.70;3.40;;;6.70;99.90;;;;;;4989415;28;20043;-49
2023/01/09 10:49:22;;;;;;;6.22;3.25;;;6.70;99.90;;;;;;4990468;28;20042;-48
2023/01/09 10:51:49;;;;;;;7.68;3.45;;;6.70;99.90;;;;;;4990159;28;20066;-48
2023/01/09 10:54:22;;;;;;;7.68;3.83;;;6.70;99.90;;;;;;4973822;28;20049;-48
2023/01/09 10:57:05;;;;;;;6.68;3.63;;;6.70;99.90;;;;;;4986002;28;20121;-48
2023/01/09 10:59:30;;;;;;;7.85;4.20;;;6.70;99.90;;;;;;4986751;28;20046;-48
2023/01/09 11:01:56;;;;;;;7.20;4.18;;;6.70;99.90;;;;;;4988386;28;20042;-49
2023/01/09 11:04:31;;;;;;;5.88;3.63;;;6.80;99.90;;;;;;4991005;28;20042;-49
2023/01/09 11:07:17;;;;;;;9.38;4.10;;;6.80;99.90;;;;;;4989688;28;20057;-48
2023/01/09 11:10:00;;;;;;;6.50;4.45;;;6.70;99.90;;;;;;4984281;28;20050;-50
2023/01/09 11:12:31;;;;;;;6.38;4.50;;;6.80;99.90;;;;;;4980618;28;20069;-50
2023/01/09 11:15:19;;;;;;;11.52;4.60;;;6.80;99.90;;;;;;4987299;28;20042;-48
2023/01/09 11:17:50;;;;;;;8.70;4.90;;;6.80;99.90;;;;;;4988040;28;20412;-48
2023/01/09 11:20:17;;;;;;;6.55;4.55;;;6.80;99.90;;;;;;4990379;28;20412;-49
2023/01/09 11:22:48;;;;;;;5.33;4.83;;;6.80;99.90;;;;;;4990160;28;20053;-50
2023/01/09 11:25:16;;;;;;;9.35;4.60;;;6.80;99.90;;;;;;4987537;28;20512;-48
2023/01/09 11:27:42;;;;;;;7.72;4.85;;;6.80;99.90;;;;;;4989462;28;20181;-48
2023/01/09 11:30:08;;;;;;;6.05;5.40;;;6.80;99.90;;;;;;4985829;28;20193;-48
2023/01/09 11:32:34;;;;;;;7.95;5.57;;;6.80;99.90;;;;;;4991451;28;20129;-49
2023/01/09 11:35:00;;;;;;;6.32;5.57;;;6.80;99.90;;;;;;4980275;28;20038;-48
2023/01/09 11:37:28;;;;;;;6.45;5.63;;;6.80;99.90;;;;;;4977166;28;20500;-50
2023/01/09 11:39:56;;;;;;;8.35;6.20;;;6.90;99.90;;;;;;4991246;28;20054;-48
2023/01/09 11:45:33;;;;;;;8.32;7.35;;;7.00;99.90;;;;;;4961862;28;20046;-49
2023/01/09 11:48:00;;;;;;;7.82;7.00;;;7.00;99.90;;;;;;4991087;28;20105;-50
2023/01/09 11:50:28;;;;;;;8.73;7.47;;;7.00;99.90;;;;;;4991349;28;20141;-51
2023/01/09 11:53:15;;;;;;;9.60;7.28;;;7.00;99.90;;;;;;4984799;28;20043;-49
2023/01/09 11:55:42;;;;;;;10.55;7.78;;;7.10;99.90;;;;;;4992694;28;20062;-49
2023/01/09 11:58:18;;;;;;;9.90;8.02;;;;;;;;;;4996882;28;20066;-50
2023/01/09 12:00:58;;;;;;;13.27;9.13;;;7.10;99.90;;;;;;4991565;28;20053;-48
2023/01/09 12:03:33;;;;;;;10.35;8.80;;;7.20;99.90;;;;;;4984854;28;20104;-58
2023/01/09 12:06:08;;;;;;;12.65;9.50;;;7.20;99.90;;;;;;4987658;28;20124;-49
2023/01/09 12:08:54;;;;;;;13.45;9.93;;;7.20;99.90;;;;;;4988578;28;20548;-48
2023/01/09 12:11:26;;;;;;;10.43;9.43;;;7.30;99.90;;;;;;4989782;28;20263;-50
2023/01/09 12:14:08;;;;;;;11.85;10.23;;;7.30;99.90;;;;;;4990179;28;20065;-48
2023/01/09 12:16:52;;;;;;;14.63;9.80;;;7.40;99.90;;;;;;4990953;28;20035;-49
2023/01/09 12:19:17;;;;;;;11.38;10.23;;;7.40;99.90;;;;;;4991098;28;20050;-49
2023/01/09 12:21:56;;;;;;;11.02;9.93;;;7.30;99.90;;;;;;4983912;28;20054;-49
2023/01/09 12:24:22;;;;;;;11.20;10.10;;;7.40;99.90;;;;;;4978845;28;20043;-48
2023/01/09 12:27:15;;;;;;;16.27;11.27;;;7.40;99.90;;;;;;4985680;28;20053;-49
2023/01/09 12:29:59;;;;;;;14.50;11.63;;;7.40;99.90;;;;;;4988352;28;20039;-49
2023/01/09 12:32:30;;;;;;;16.38;13.02;;;7.50;99.90;;;;;;4980712;28;20556;-49
2023/01/09 12:35:23;;;;;;;13.57;12.05;;;7.50;99.90;;;;;;4992917;28;20051;-48
2023/01/09 12:38:33;;;;;;;18.08;13.30;;;7.50;99.90;;;;;;4988683;28;20511;-48
2023/01/09 12:41:21;;;;;;;13.95;12.40;;;7.50;99.90;;;;;;4956435;28;20145;-49
2023/01/09 12:43:53;;;;;;;;;;;7.50;99.90;;;;;;4989061;28;20046;-48
2023/01/09 12:46:21;;;;;;;14.68;12.57;;;7.50;99.90;;;;;;4986352;28;20028;-50
2023/01/09 12:48:56;;;;;;;19.98;14.98;;;7.50;99.90;;;;;;4996317;28;20046;-48
2023/01/09 12:51:37;;;;;;;17.50;14.25;;;7.50;99.90;;;;;;4995202;28;20042;-49
2023/01/09 12:54:23;;;;;;;19.33;15.13;;;7.50;99.90;;;;;;4996668;28;20050;-48
2023/01/09 12:56:54;;;;;;;19.40;13.93;;;7.50;99.90;;;;;;4995979;28;20046;-49
2023/01/09 12:59:35;;;;;;;16.70;14.43;;;7.60;99.90;;;;;;4993849;28;20047;-49
2023/01/09 13:02:26;;;;;;;20.50;14.68;;;7.60;99.90;;;;;;4996495;28;20046;-49
2023/01/09 13:05:01;;;;;;;15.57;13.93;;;7.60;99.90;;;;;;4996674;28;20234;-49
2023/01/09 13:07:32;;;;;;;15.60;12.82;;;7.60;99.90;;;;;;4994418;28;20117;-49
2023/01/09 13:10:15;;;;;;;15.65;12.82;;;7.60;99.90;;;;;;4994311;28;20050;-49
2023/01/09 13:12:42;;;;;;;16.98;11.80;;;7.70;99.90;;;;;;4996123;28;20481;-48
2023/01/09 13:15:29;;;;;;;12.05;10.18;;;7.60;99.90;;;;;;4996380;28;20445;-50
2023/01/09 13:18:17;;;;;;;14.07;9.80;;;7.60;99.90;;;;;;4994085;28;20057;-48
2023/01/09 13:20:46;;;;;;;15.52;9.98;;;7.60;99.90;;;;;;4995222;28;20043;-49
2023/01/09 13:23:27;;;;;;;11.63;8.82;;;7.60;99.90;;;;;;4995859;28;20551;-50
2023/01/09 13:25:57;;;;;;;13.23;8.98;;;7.60;99.90;;;;;;4994711;28;20516;-50
2023/01/09 13:28:31;;;;;;;14.45;9.57;;;7.60;99.90;;;;;;4995821;28;20482;-50